sensor_id;sensor_type;location;lat;lon;timestamp;pressure;altitude;pressure_sealevel;temperature;humidity
81387;BME280;70842;50.744;7.114;2024-02-21T00:01:58;101914.34;;;11.30;57.43
81387;BME280;70842;50.744;7.114;2024-02-21T00:04:24;101910.53;;;11.60;56.93
81387;BME280;70842;50.744;7.114;2024-02-21T00:06:51;101913.59;;;11.28;57.33
81387;BME280;70842;50.744;7.114;2024-02-21T00:09:17;101915.03;;;11.19;57.80
81387;BME280;70842;50.744;7.114;2024-02-21T00:11:45;101914.59;;;11.39;57.02
81387;BME280;70842;50.744;7.114;2024-02-21T00:14:12;101897.06;;;11.90;56.07
81387;BME280;70842;50.744;7.114;2024-02-21T00:16:38;101895.34;;;11.77;55.84
81387;BME280;70842;50.744;7.114;2024-02-21T00:19:05;101901.94;;;11.84;55.91
81387;BME280;70842;50.744;7.114;2024-02-21T00:21:31;101891.50;;;12.32;54.85
81387;BME280;70842;50.744;7.114;2024-02-21T00:23:58;101900.44;;;12.57;53.60
81387;BME280;70842;50.744;7.114;2024-02-21T00:26:24;101895.13;;;12.44;53.72
81387;BME280;70842;50.744;7.114;2024-02-21T00:28:53;101893.09;;;12.35;54.66
81387;BME280;70842;50.744;7.114;2024-02-21T00:31:19;101892.44;;;12.06;55.52
81387;BME280;70842;50.744;7.114;2024-02-21T00:33:46;101895.19;;;12.17;54.77
81387;BME280;70842;50.744;7.114;2024-02-21T00:36:12;101876.94;;;12.13;55.08
81387;BME280;70842;50.744;7.114;2024-02-21T00:38:39;101874.78;;;12.05;55.05
81387;BME280;70842;50.744;7.114;2024-02-21T00:41:05;101879.63;;;11.86;55.61
81387;BME280;70842;50.744;7.114;2024-02-21T00:43:31;101880.53;;;12.12;55.11
81387;BME280;70842;50.744;7.114;2024-02-21T00:45:58;101865.22;;;12.15;54.98
81387;BME280;70842;50.744;7.114;2024-02-21T00:48:24;101869.31;;;11.82;56.17
81387;BME280;70842;50.744;7.114;2024-02-21T00:50:51;101867.41;;;11.57;56.68
81387;BME280;70842;50.744;7.114;2024-02-21T00:53:18;101864.00;;;11.55;57.23
81387;BME280;70842;50.744;7.114;2024-02-21T00:55:44;101862.97;;;11.57;57.27
81387;BME280;70842;50.744;7.114;2024-02-21T00:58:10;101868.34;;;11.56;57.10
81387;BME280;70842;50.744;7.114;2024-02-21T01:00:37;101867.72;;;11.52;57.30
81387;BME280;70842;50.744;7.114;2024-02-21T01:03:04;101856.50;;;12.01;55.87
81387;BME280;70842;50.744;7.114;2024-02-21T01:05:30;101858.78;;;12.32;55.30
81387;BME280;70842;50.744;7.114;2024-02-21T01:07:56;101851.44;;;12.23;55.40
81387;BME280;70842;50.744;7.114;2024-02-21T01:10:23;101847.81;;;12.62;54.60
81387;BME280;70842;50.744;7.114;2024-02-21T01:12:49;101847.81;;;12.62;54.31
81387;BME280;70842;50.744;7.114;2024-02-21T01:15:16;101850.75;;;12.07;55.38
81387;BME280;70842;50.744;7.114;2024-02-21T01:17:42;101851.19;;;12.13;54.97
81387;BME280;70842;50.744;7.114;2024-02-21T01:20:09;101834.63;;;12.35;54.91
81387;BME280;70842;50.744;7.114;2024-02-21T01:22:36;101834.03;;;11.80;56.20
81387;BME280;70842;50.744;7.114;2024-02-21T01:25:02;101841.00;;;12.32;55.36
81387;BME280;70842;50.744;7.114;2024-02-21T01:27:29;101831.84;;;12.24;55.39
81387;BME280;70842;50.744;7.114;2024-02-21T01:29:56;101822.31;;;12.34;55.55
81387;BME280;70842;50.744;7.114;2024-02-21T01:32:22;101811.03;;;11.53;57.09
81387;BME280;70842;50.744;7.114;2024-02-21T01:34:51;101815.69;;;11.77;57.00
81387;BME280;70842;50.744;7.114;2024-02-21T01:37:17;101820.13;;;11.49;57.89
81387;BME280;70842;50.744;7.114;2024-02-21T01:39:44;101821.69;;;11.39;57.90
81387;BME280;70842;50.744;7.114;2024-02-21T01:42:10;101811.53;;;11.72;57.55
81387;BME280;70842;50.744;7.114;2024-02-21T01:44:37;101811.22;;;11.50;57.57
81387;BME280;70842;50.744;7.114;2024-02-21T01:47:04;101801.88;;;11.84;56.80
81387;BME280;70842;50.744;7.114;2024-02-21T01:49:31;101793.66;;;11.35;58.46
81387;BME280;70842;50.744;7.114;2024-02-21T01:51:57;101804.13;;;11.51;57.90
81387;BME280;70842;50.744;7.114;2024-02-21T01:54:25;101808.16;;;11.56;57.94
81387;BME280;70842;50.744;7.114;2024-02-21T01:56:52;101803.34;;;11.36;58.23
81387;BME280;70842;50.744;7.114;2024-02-21T01:59:19;101797.47;;;11.31;58.61
81387;BME280;70842;50.744;7.114;2024-02-21T02:01:46;101797.63;;;11.42;58.60
81387;BME280;70842;50.744;7.114;2024-02-21T02:04:13;101791.25;;;11.71;57.57
81387;BME280;70842;50.744;7.114;2024-02-21T02:06:42;101770.59;;;11.62;57.63
81387;BME280;70842;50.744;7.114;2024-02-21T02:09:09;101799.13;;;11.20;58.84
81387;BME280;70842;50.744;7.114;2024-02-21T02:11:36;101781.59;;;11.83;57.10
81387;BME280;70842;50.744;7.114;2024-02-21T02:14:02;101768.91;;;11.61;57.75
81387;BME280;70842;50.744;7.114;2024-02-21T02:16:29;101772.56;;;11.34;58.67
81387;BME280;70842;50.744;7.114;2024-02-21T02:18:56;101773.75;;;11.42;58.61
81387;BME280;70842;50.744;7.114;2024-02-21T02:21:32;101772.41;;;11.62;58.13
81387;BME280;70842;50.744;7.114;2024-02-21T02:24:00;101760.16;;;11.34;58.71
81387;BME280;70842;50.744;7.114;2024-02-21T02:26:26;101754.81;;;11.22;58.81
81387;BME280;70842;50.744;7.114;2024-02-21T02:28:53;101748.84;;;11.18;59.19
81387;BME280;70842;50.744;7.114;2024-02-21T02:31:20;101749.44;;;11.09;59.60
81387;BME280;70842;50.744;7.114;2024-02-21T02:33:46;101743.50;;;10.65;60.62
81387;BME280;70842;50.744;7.114;2024-02-21T02:36:14;101746.25;;;11.04;59.83
81387;BME280;70842;50.744;7.114;2024-02-21T02:38:41;101732.34;;;11.01;59.86
81387;BME280;70842;50.744;7.114;2024-02-21T02:41:07;101735.31;;;10.55;61.48
81387;BME280;70842;50.744;7.114;2024-02-21T02:43:33;101727.41;;;10.94;60.42
81387;BME280;70842;50.744;7.114;2024-02-21T02:46:00;101714.75;;;11.64;58.42
81387;BME280;70842;50.744;7.114;2024-02-21T02:48:26;101710.28;;;11.00;59.68
81387;BME280;70842;50.744;7.114;2024-02-21T02:50:53;101711.56;;;11.20;59.42
81387;BME280;70842;50.744;7.114;2024-02-21T02:53:19;101710.47;;;10.97;60.07
81387;BME280;70842;50.744;7.114;2024-02-21T02:55:46;101718.69;;;11.07;59.79
81387;BME280;70842;50.744;7.114;2024-02-21T02:58:12;101722.78;;;10.98;60.12
81387;BME280;70842;50.744;7.114;2024-02-21T03:00:39;101707.41;;;11.03;59.67
81387;BME280;70842;50.744;7.114;2024-02-21T03:03:05;101711.50;;;11.21;59.18
81387;BME280;70842;50.744;7.114;2024-02-21T03:05:32;101717.19;;;10.76;60.50
81387;BME280;70842;50.744;7.114;2024-02-21T03:07:59;101713.66;;;10.75;60.38
81387;BME280;70842;50.744;7.114;2024-02-21T03:10:25;101723.94;;;10.94;60.30
81387;BME280;70842;50.744;7.114;2024-02-21T03:12:52;101710.22;;;11.79;58.01
81387;BME280;70842;50.744;7.114;2024-02-21T03:15:20;101703.06;;;11.66;58.46
81387;BME280;70842;50.744;7.114;2024-02-21T03:17:46;101685.94;;;11.33;58.51
81387;BME280;70842;50.744;7.114;2024-02-21T03:20:13;101678.22;;;11.55;58.28
81387;BME280;70842;50.744;7.114;2024-02-21T03:22:40;101675.88;;;11.88;57.85
81387;BME280;70842;50.744;7.114;2024-02-21T03:25:08;101670.88;;;11.96;57.43
81387;BME280;70842;50.744;7.114;2024-02-21T03:27:35;101666.84;;;11.65;57.67
81387;BME280;70842;50.744;7.114;2024-02-21T03:30:01;101669.06;;;11.46;58.86
81387;BME280;70842;50.744;7.114;2024-02-21T03:32:28;101662.59;;;11.50;58.80
81387;BME280;70842;50.744;7.114;2024-02-21T03:34:56;101660.50;;;10.91;60.55
81387;BME280;70842;50.744;7.114;2024-02-21T03:37:23;101662.41;;;10.89;60.46
81387;BME280;70842;50.744;7.114;2024-02-21T03:39:49;101662.59;;;10.86;60.37
81387;BME280;70842;50.744;7.114;2024-02-21T03:42:15;101662.50;;;10.87;60.79
81387;BME280;70842;50.744;7.114;2024-02-21T03:44:42;101662.41;;;10.89;60.50
81387;BME280;70842;50.744;7.114;2024-02-21T03:47:08;101655.63;;;10.97;59.79
81387;BME280;70842;50.744;7.114;2024-02-21T03:49:37;101657.03;;;10.64;61.69
81387;BME280;70842;50.744;7.114;2024-02-21T03:52:04;101652.53;;;11.43;59.23
81387;BME280;70842;50.744;7.114;2024-02-21T03:54:30;101644.88;;;11.63;58.31
81387;BME280;70842;50.744;7.114;2024-02-21T03:56:57;101655.91;;;11.32;58.96
81387;BME280;70842;50.744;7.114;2024-02-21T03:59:23;101664.38;;;11.25;59.23
81387;BME280;70842;50.744;7.114;2024-02-21T04:01:53;101658.19;;;10.99;59.96
81387;BME280;70842;50.744;7.114;2024-02-21T04:04:20;101660.88;;;11.24;59.58
81387;BME280;70842;50.744;7.114;2024-02-21T04:06:48;101648.97;;;11.05;60.20
81387;BME280;70842;50.744;7.114;2024-02-21T04:09:14;101644.50;;;11.18;60.43
81387;BME280;70842;50.744;7.114;2024-02-21T04:11:41;101643.81;;;11.53;59.61
81387;BME280;70842;50.744;7.114;2024-02-21T04:14:07;101641.69;;;11.46;59.72
81387;BME280;70842;50.744;7.114;2024-02-21T04:16:34;101651.53;;;11.31;59.92
81387;BME280;70842;50.744;7.114;2024-02-21T04:19:01;101656.44;;;10.73;61.23
81387;BME280;70842;50.744;7.114;2024-02-21T04:21:28;101651.94;;;11.00;61.09
81387;BME280;70842;50.744;7.114;2024-02-21T04:23:55;101656.81;;;11.06;60.36
81387;BME280;70842;50.744;7.114;2024-02-21T04:26:21;101651.19;;;10.98;60.60
81387;BME280;70842;50.744;7.114;2024-02-21T04:28:48;101650.16;;;11.13;60.31
81387;BME280;70842;50.744;7.114;2024-02-21T04:31:14;101649.69;;;10.94;60.93
81387;BME280;70842;50.744;7.114;2024-02-21T04:33:41;101642.91;;;10.37;62.25
81387;BME280;70842;50.744;7.114;2024-02-21T04:36:08;101644.28;;;10.69;61.81
81387;BME280;70842;50.744;7.114;2024-02-21T04:38:34;101634.59;;;10.94;60.66
81387;BME280;70842;50.744;7.114;2024-02-21T04:41:01;101643.66;;;10.65;61.51
